sensor_id;sensor_type;location;lat;lon;timestamp;P1;durP1;ratioP1;P2;durP2;ratioP2
7027;SDS011;3555;53.248;10.336;2022-12-18T00:00:44;19.27;;;10.33;;
7027;SDS011;3555;53.248;10.336;2022-12-18T00:03:12;15.27;;;9.10;;
7027;SDS011;3555;53.248;10.336;2022-12-18T00:05:46;14.93;;;9.30;;
7027;SDS011;3555;53.248;10.336;2022-12-18T00:08:13;13.67;;;8.93;;
7027;SDS011;3555;53.248;10.336;2022-12-18T00:10:41;17.37;;;8.60;;
7027;SDS011;3555;53.248;10.336;2022-12-18T00:13:08;16.20;;;8.80;;
7027;SDS011;3555;53.248;10.336;2022-12-18T00:15:35;14.23;;;8.63;;
7027;SDS011;3555;53.248;10.336;2022-12-18T00:18:02;16.03;;;8.70;;
7027;SDS011;3555;53.248;10.336;2022-12-18T00:20:29;13.87;;;7.90;;
7027;SDS011;3555;53.248;10.336;2022-12-18T00:22:58;13.80;;;8.37;;
7027;SDS011;3555;53.248;10.336;2022-12-18T00:25:25;13.60;;;8.30;;
7027;SDS011;3555;53.248;10.336;2022-12-18T00:27:52;13.90;;;8.73;;
7027;SDS011;3555;53.248;10.336;2022-12-18T00:30:19;14.60;;;8.43;;
7027;SDS011;3555;53.248;10.336;2022-12-18T00:32:46;16.00;;;8.53;;
7027;SDS011;3555;53.248;10.336;2022-12-18T00:35:12;15.60;;;9.33;;
7027;SDS011;3555;53.248;10.336;2022-12-18T00:37:39;15.27;;;9.00;;
7027;SDS011;3555;53.248;10.336;2022-12-18T00:40:09;15.70;;;9.33;;
7027;SDS011;3555;53.248;10.336;2022-12-18T00:42:36;16.03;;;9.90;;
7027;SDS011;3555;53.248;10.336;2022-12-18T00:45:20;19.40;;;10.17;;
7027;SDS011;3555;53.248;10.336;2022-12-18T00:47:50;16.10;;;9.00;;
7027;SDS011;3555;53.248;10.336;2022-12-18T00:50:17;18.80;;;10.27;;
7027;SDS011;3555;53.248;10.336;2022-12-18T00:52:44;16.17;;;10.13;;
7027;SDS011;3555;53.248;10.336;2022-12-18T00:55:13;14.83;;;9.47;;
7027;SDS011;3555;53.248;10.336;2022-12-18T00:57:39;16.07;;;9.33;;
7027;SDS011;3555;53.248;10.336;2022-12-18T01:00:08;14.60;;;9.17;;
7027;SDS011;3555;53.248;10.336;2022-12-18T01:02:36;16.00;;;10.37;;
7027;SDS011;3555;53.248;10.336;2022-12-18T01:05:04;15.83;;;9.60;;
7027;SDS011;3555;53.248;10.336;2022-12-18T01:07:31;15.83;;;9.70;;
7027;SDS011;3555;53.248;10.336;2022-12-18T01:09:58;14.00;;;9.70;;
7027;SDS011;3555;53.248;10.336;2022-12-18T01:12:26;13.30;;;8.57;;
7027;SDS011;3555;53.248;10.336;2022-12-18T01:14:53;15.67;;;9.73;;
7027;SDS011;3555;53.248;10.336;2022-12-18T01:17:20;16.47;;;9.30;;
7027;SDS011;3555;53.248;10.336;2022-12-18T01:19:47;14.90;;;9.67;;
7027;SDS011;3555;53.248;10.336;2022-12-18T01:22:14;16.63;;;9.37;;
7027;SDS011;3555;53.248;10.336;2022-12-18T01:24:41;15.13;;;8.33;;
7027;SDS011;3555;53.248;10.336;2022-12-18T01:27:08;18.83;;;8.83;;
7027;SDS011;3555;53.248;10.336;2022-12-18T01:29:36;15.90;;;9.83;;
7027;SDS011;3555;53.248;10.336;2022-12-18T01:32:03;12.70;;;8.57;;
7027;SDS011;3555;53.248;10.336;2022-12-18T01:34:30;13.57;;;8.63;;
7027;SDS011;3555;53.248;10.336;2022-12-18T01:36:57;14.10;;;9.73;;
7027;SDS011;3555;53.248;10.336;2022-12-18T01:39:24;13.83;;;8.93;;
7027;SDS011;3555;53.248;10.336;2022-12-18T01:41:50;15.27;;;9.07;;
7027;SDS011;3555;53.248;10.336;2022-12-18T01:47:32;14.80;;;8.27;;
7027;SDS011;3555;53.248;10.336;2022-12-18T01:50:04;12.17;;;7.90;;
7027;SDS011;3555;53.248;10.336;2022-12-18T01:52:34;17.03;;;9.40;;
7027;SDS011;3555;53.248;10.336;2022-12-18T01:55:06;12.57;;;8.90;;
7027;SDS011;3555;53.248;10.336;2022-12-18T01:57:34;13.07;;;9.07;;
7027;SDS011;3555;53.248;10.336;2022-12-18T02:00:04;16.63;;;10.03;;
7027;SDS011;3555;53.248;10.336;2022-12-18T02:02:33;16.87;;;9.10;;
7027;SDS011;3555;53.248;10.336;2022-12-18T02:05:00;14.20;;;8.13;;
7027;SDS011;3555;53.248;10.336;2022-12-18T02:07:31;15.53;;;8.83;;
7027;SDS011;3555;53.248;10.336;2022-12-18T02:10:05;19.67;;;8.83;;
7027;SDS011;3555;53.248;10.336;2022-12-18T02:12:38;14.93;;;9.17;;
7027;SDS011;3555;53.248;10.336;2022-12-18T02:15:13;15.33;;;9.40;;
7027;SDS011;3555;53.248;10.336;2022-12-18T02:17:46;14.27;;;8.93;;
7027;SDS011;3555;53.248;10.336;2022-12-18T02:20:17;17.10;;;9.27;;
7027;SDS011;3555;53.248;10.336;2022-12-18T02:22:53;15.67;;;9.23;;
7027;SDS011;3555;53.248;10.336;2022-12-18T02:25:36;13.97;;;9.17;;
7027;SDS011;3555;53.248;10.336;2022-12-18T02:28:13;13.33;;;8.33;;
7027;SDS011;3555;53.248;10.336;2022-12-18T02:30:42;12.63;;;8.70;;
7027;SDS011;3555;53.248;10.336;2022-12-18T02:33:13;21.13;;;9.60;;
7027;SDS011;3555;53.248;10.336;2022-12-18T02:35:41;13.23;;;9.40;;
7027;SDS011;3555;53.248;10.336;2022-12-18T02:38:10;24.97;;;9.40;;
7027;SDS011;3555;53.248;10.336;2022-12-18T02:40:38;17.20;;;10.50;;
7027;SDS011;3555;53.248;10.336;2022-12-18T02:43:10;19.40;;;10.40;;
7027;SDS011;3555;53.248;10.336;2022-12-18T02:45:47;14.67;;;9.27;;
7027;SDS011;3555;53.248;10.336;2022-12-18T02:48:16;17.83;;;9.10;;
7027;SDS011;3555;53.248;10.336;2022-12-18T02:50:45;17.97;;;8.97;;
7027;SDS011;3555;53.248;10.336;2022-12-18T02:53:19;15.97;;;8.90;;
7027;SDS011;3555;53.248;10.336;2022-12-18T02:55:54;14.90;;;9.27;;
7027;SDS011;3555;53.248;10.336;2022-12-18T02:58:28;13.07;;;8.70;;
7027;SDS011;3555;53.248;10.336;2022-12-18T03:01:01;16.40;;;9.87;;
7027;SDS011;3555;53.248;10.336;2022-12-18T03:03:35;16.50;;;10.20;;
7027;SDS011;3555;53.248;10.336;2022-12-18T03:06:07;18.83;;;10.47;;
7027;SDS011;3555;53.248;10.336;2022-12-18T03:08:41;16.13;;;10.30;;
7027;SDS011;3555;53.248;10.336;2022-12-18T03:11:12;15.03;;;9.20;;
7027;SDS011;3555;53.248;10.336;2022-12-18T03:13:40;16.60;;;9.80;;
7027;SDS011;3555;53.248;10.336;2022-12-18T03:16:14;17.00;;;10.17;;
7027;SDS011;3555;53.248;10.336;2022-12-18T03:18:45;15.90;;;10.33;;
7027;SDS011;3555;53.248;10.336;2022-12-18T03:21:14;16.27;;;10.70;;
7027;SDS011;3555;53.248;10.336;2022-12-18T03:23:46;18.47;;;10.40;;
7027;SDS011;3555;53.248;10.336;2022-12-18T03:26:17;16.50;;;10.53;;
7027;SDS011;3555;53.248;10.336;2022-12-18T03:28:49;18.70;;;11.17;;
7027;SDS011;3555;53.248;10.336;2022-12-18T03:31:19;15.10;;;9.97;;
7027;SDS011;3555;53.248;10.336;2022-12-18T03:33:51;16.33;;;10.50;;
7027;SDS011;3555;53.248;10.336;2022-12-18T03:36:18;14.23;;;10.23;;
7027;SDS011;3555;53.248;10.336;2022-12-18T03:38:45;17.60;;;10.90;;
7027;SDS011;3555;53.248;10.336;2022-12-18T03:41:15;16.63;;;9.83;;
7027;SDS011;3555;53.248;10.336;2022-12-18T03:43:48;14.63;;;9.60;;
7027;SDS011;3555;53.248;10.336;2022-12-18T03:46:22;19.73;;;10.73;;
7027;SDS011;3555;53.248;10.336;2022-12-18T03:48:55;21.10;;;11.37;;
7027;SDS011;3555;53.248;10.336;2022-12-18T03:51:28;16.40;;;10.27;;
7027;SDS011;3555;53.248;10.336;2022-12-18T03:54:03;21.23;;;11.80;;
7027;SDS011;3555;53.248;10.336;2022-12-18T03:56:33;20.10;;;11.63;;
7027;SDS011;3555;53.248;10.336;2022-12-18T03:59:04;18.37;;;10.83;;
7027;SDS011;3555;53.248;10.336;2022-12-18T04:01:34;16.73;;;11.00;;
7027;SDS011;3555;53.248;10.336;2022-12-18T04:04:04;17.70;;;11.47;;
7027;SDS011;3555;53.248;10.336;2022-12-18T04:06:35;19.37;;;11.90;;
7027;SDS011;3555;53.248;10.336;2022-12-18T04:09:04;19.83;;;11.47;;
7027;SDS011;3555;53.248;10.336;2022-12-18T04:11:31;19.70;;;10.77;;
7027;SDS011;3555;53.248;10.336;2022-12-18T04:13:58;20.27;;;11.60;;
7027;SDS011;3555;53.248;10.336;2022-12-18T04:16:25;22.07;;;11.87;;
7027;SDS011;3555;53.248;10.336;2022-12-18T04:18:54;18.30;;;12.10;;
7027;SDS011;3555;53.248;10.336;2022-12-18T04:21:21;20.83;;;12.60;;
7027;SDS011;3555;53.248;10.336;2022-12-18T04:23:48;17.90;;;11.37;;
7027;SDS011;3555;53.248;10.336;2022-12-18T04:26:14;20.13;;;11.73;;
7027;SDS011;3555;53.248;10.336;2022-12-18T04:28:41;17.90;;;12.27;;
7027;SDS011;3555;53.248;10.336;2022-12-18T04:31:08;22.27;;;12.60;;
7027;SDS011;3555;53.248;10.336;2022-12-18T04:33:35;18.57;;;12.03;;
7027;SDS011;3555;53.248;10.336;2022-12-18T04:36:04;18.60;;;13.00;;
7027;SDS011;3555;53.248;10.336;2022-12-18T04:38:31;23.83;;;13.70;;
7027;SDS011;3555;53.248;10.336;2022-12-18T04:40:58;23.87;;;13.47;;
7027;SDS011;3555;53.248;10.336;2022-12-18T04:43:25;29.47;;;14.17;;
7027;SDS011;3555;53.248;10.336;2022-12-18T04:45:52;27.03;;;15.30;;
7027;SDS011;3555;53.248;10.336;2022-12-18T04:48:19;26.03;;;14.23;;
7027;SDS011;3555;53.248;10.336;2022-12-18T04:50:46;24.03;;;14.23;;
7027;SDS011;3555;53.248;10.336;2022-12-18T04:53:15;24.17;;;14.27;;
7027;SDS011;3555;53.248;10.336;2022-12-18T04:55:42;27.43;;;14.77;;
7027;SDS011;3555;53.248;10.336;2022-12-18T04:58:09;22.17;;;13.93;;
7027;SDS011;3555;53.248;10.336;2022-12-18T05:00:36;21.60;;;12.97;;
7027;SDS011;3555;53.248;10.336;2022-12-18T05:03:02;25.23;;;13.87;;
7027;SDS011;3555;53.248;10.336;2022-12-18T05:05:29;24.67;;;13.67;;
7027;SDS011;3555;53.248;10.336;2022-12-18T05:07:56;21.57;;;11.93;;
7027;SDS011;3555;53.248;10.336;2022-12-18T05:10:24;19.77;;;13.23;;
7027;SDS011;3555;53.248;10.336;2022-12-18T05:12:51;22.30;;;13.30;;
7027;SDS011;3555;53.248;10.336;2022-12-18T05:15:26;23.20;;;13.20;;
7027;SDS011;3555;53.248;10.336;2022-12-18T05:17:53;26.77;;;13.57;;
7027;SDS011;3555;53.248;10.336;2022-12-18T05:20:20;24.70;;;14.47;;
7027;SDS011;3555;53.248;10.336;2022-12-18T05:22:47;23.03;;;14.53;;
7027;SDS011;3555;53.248;10.336;2022-12-18T05:25:14;22.27;;;14.03;;
7027;SDS011;3555;53.248;10.336;2022-12-18T05:27:43;25.63;;;13.93;;
7027;SDS011;3555;53.248;10.336;2022-12-18T05:30:10;24.17;;;13.50;;
7027;SDS011;3555;53.248;10.336;2022-12-18T05:32:37;24.30;;;13.53;;
7027;SDS011;3555;53.248;10.336;2022-12-18T05:35:05;25.60;;;13.40;;
7027;SDS011;3555;53.248;10.336;2022-12-18T05:37:33;26.70;;;15.10;;
7027;SDS011;3555;53.248;10.336;2022-12-18T05:40:00;23.23;;;12.63;;
7027;SDS011;3555;53.248;10.336;2022-12-18T05:42:27;26.40;;;13.80;;
7027;SDS011;3555;53.248;10.336;2022-12-18T05:44:56;25.10;;;13.73;;
7027;SDS011;3555;53.248;10.336;2022-12-18T05:47:22;21.03;;;13.03;;
7027;SDS011;3555;53.248;10.336;2022-12-18T05:49:49;27.80;;;15.20;;
7027;SDS011;3555;53.248;10.336;2022-12-18T05:52:16;26.30;;;13.93;;
7027;SDS011;3555;53.248;10.336;2022-12-18T05:54:43;29.77;;;14.97;;
7027;SDS011;3555;53.248;10.336;2022-12-18T05:57:10;28.40;;;13.50;;
7027;SDS011;3555;53.248;10.336;2022-12-18T05:59:37;19.17;;;12.73;;
7027;SDS011;3555;53.248;10.336;2022-12-18T06:02:05;20.00;;;13.57;;
7027;SDS011;3555;53.248;10.336;2022-12-18T06:04:32;23.20;;;13.83;;
7027;SDS011;3555;53.248;10.336;2022-12-18T06:06:59;22.20;;;13.13;;
7027;SDS011;3555;53.248;10.336;2022-12-18T06:09:29;25.73;;;13.33;;
7027;SDS011;3555;53.248;10.336;2022-12-18T06:11:57;24.97;;;13.10;;
7027;SDS011;3555;53.248;10.336;2022-12-18T06:14:24;26.83;;;14.83;;
7027;SDS011;3555;53.248;10.336;2022-12-18T06:16:50;26.67;;;15.13;;
7027;SDS011;3555;53.248;10.336;2022-12-18T06:19:19;24.57;;;14.67;;
7027;SDS011;3555;53.248;10.336;2022-12-18T06:21:46;26.60;;;13.97;;
7027;SDS011;3555;53.248;10.336;2022-12-18T06:24:14;25.40;;;14.13;;
7027;SDS011;3555;53.248;10.336;2022-12-18T06:26:41;26.87;;;14.23;;
7027;SDS011;3555;53.248;10.336;2022-12-18T06:29:08;24.87;;;13.40;;
7027;SDS011;3555;53.248;10.336;2022-12-18T06:31:34;25.80;;;14.07;;
7027;SDS011;3555;53.248;10.336;2022-12-18T06:34:02;29.80;;;13.70;;
7027;SDS011;3555;53.248;10.336;2022-12-18T06:36:31;24.63;;;14.73;;
7027;SDS011;3555;53.248;10.336;2022-12-18T06:38:58;28.00;;;14.27;;
7027;SDS011;3555;53.248;10.336;2022-12-18T06:41:25;25.67;;;14.07;;
7027;SDS011;3555;53.248;10.336;2022-12-18T06:43:52;27.67;;;15.17;;
7027;SDS011;3555;53.248;10.336;2022-12-18T06:46:19;28.60;;;14.70;;
7027;SDS011;3555;53.248;10.336;2022-12-18T06:48:47;25.20;;;13.80;;
7027;SDS011;3555;53.248;10.336;2022-12-18T06:51:18;27.17;;;14.60;;
7027;SDS011;3555;53.248;10.336;2022-12-18T06:53:47;26.77;;;14.23;;
7027;SDS011;3555;53.248;10.336;2022-12-18T06:56:14;25.77;;;12.83;;
7027;SDS011;3555;53.248;10.336;2022-12-18T06:58:41;22.70;;;13.40;;
7027;SDS011;3555;53.248;10.336;2022-12-18T07:01:09;25.77;;;13.43;;
7027;SDS011;3555;53.248;10.336;2022-12-18T07:03:37;23.33;;;14.20;;
7027;SDS011;3555;53.248;10.336;2022-12-18T07:06:05;26.50;;;13.77;;
7027;SDS011;3555;53.248;10.336;2022-12-18T07:08:37;25.13;;;14.03;;
7027;SDS011;3555;53.248;10.336;2022-12-18T07:11:06;23.13;;;14.27;;
7027;SDS011;3555;53.248;10.336;2022-12-18T07:13:32;28.17;;;14.60;;
7027;SDS011;3555;53.248;10.336;2022-12-18T07:16:03;25.77;;;14.20;;
7027;SDS011;3555;53.248;10.336;2022-12-18T07:18:31;23.20;;;14.10;;
7027;SDS011;3555;53.248;10.336;2022-12-18T07:20:59;24.47;;;13.53;;
7027;SDS011;3555;53.248;10.336;2022-12-18T07:23:29;27.33;;;13.53;;
7027;SDS011;3555;53.248;10.336;2022-12-18T07:26:03;20.53;;;13.10;;
7027;SDS011;3555;53.248;10.336;2022-12-18T07:28:32;26.53;;;15.37;;
7027;SDS011;3555;53.248;10.336;2022-12-18T07:31:02;24.13;;;13.37;;
7027;SDS011;3555;53.248;10.336;2022-12-18T07:33:29;23.33;;;13.37;;
7027;SDS011;3555;53.248;10.336;2022-12-18T07:35:56;24.13;;;14.07;;
7027;SDS011;3555;53.248;10.336;2022-12-18T07:38:24;31.10;;;14.43;;
7027;SDS011;3555;53.248;10.336;2022-12-18T07:40:51;22.60;;;13.00;;
7027;SDS011;3555;53.248;10.336;2022-12-18T07:43:18;26.83;;;14.60;;
7027;SDS011;3555;53.248;10.336;2022-12-18T07:45:48;23.70;;;13.60;;
7027;SDS011;3555;53.248;10.336;2022-12-18T07:48:15;24.90;;;15.27;;
7027;SDS011;3555;53.248;10.336;2022-12-18T07:50:42;32.27;;;16.57;;
7027;SDS011;3555;53.248;10.336;2022-12-18T07:53:09;31.17;;;15.53;;
7027;SDS011;3555;53.248;10.336;2022-12-18T07:55:36;27.00;;;15.23;;
7027;SDS011;3555;53.248;10.336;2022-12-18T07:58:03;24.97;;;14.13;;
7027;SDS011;3555;53.248;10.336;2022-12-18T08:00:30;25.70;;;13.13;;
7027;SDS011;3555;53.248;10.336;2022-12-18T08:02:59;26.43;;;14.30;;
7027;SDS011;3555;53.248;10.336;2022-12-18T08:05:25;26.77;;;14.67;;
7027;SDS011;3555;53.248;10.336;2022-12-18T08:07:53;22.70;;;13.67;;
7027;SDS011;3555;53.248;10.336;2022-12-18T08:10:21;25.57;;;13.87;;
7027;SDS011;3555;53.248;10.336;2022-12-18T08:12:49;27.03;;;13.70;;
7027;SDS011;3555;53.248;10.336;2022-12-18T08:15:16;26.77;;;12.93;;
7027;SDS011;3555;53.248;10.336;2022-12-18T08:17:43;23.47;;;12.47;;
7027;SDS011;3555;53.248;10.336;2022-12-18T08:20:11;23.47;;;12.77;;
7027;SDS011;3555;53.248;10.336;2022-12-18T08:22:40;23.97;;;13.73;;
7027;SDS011;3555;53.248;10.336;2022-12-18T08:25:07;26.23;;;14.17;;
7027;SDS011;3555;53.248;10.336;2022-12-18T08:27:34;26.37;;;13.87;;
7027;SDS011;3555;53.248;10.336;2022-12-18T08:30:01;27.23;;;14.67;;
7027;SDS011;3555;53.248;10.336;2022-12-18T08:32:28;27.07;;;14.67;;
7027;SDS011;3555;53.248;10.336;2022-12-18T08:34:55;27.27;;;15.97;;
7027;SDS011;3555;53.248;10.336;2022-12-18T08:37:23;28.90;;;15.00;;
7027;SDS011;3555;53.248;10.336;2022-12-18T08:39:50;29.00;;;13.03;;
7027;SDS011;3555;53.248;10.336;2022-12-18T08:42:17;23.13;;;12.93;;
7027;SDS011;3555;53.248;10.336;2022-12-18T08:45:02;23.27;;;13.90;;
7027;SDS011;3555;53.248;10.336;2022-12-18T08:47:29;24.73;;;14.17;;
7027;SDS011;3555;53.248;10.336;2022-12-18T08:49:56;27.83;;;13.77;;
7027;SDS011;3555;53.248;10.336;2022-12-18T08:52:24;26.87;;;14.50;;
7027;SDS011;3555;53.248;10.336;2022-12-18T08:54:51;24.27;;;13.43;;
7027;SDS011;3555;53.248;10.336;2022-12-18T08:57:18;24.00;;;13.60;;
7027;SDS011;3555;53.248;10.336;2022-12-18T08:59:45;24.97;;;12.53;;
7027;SDS011;3555;53.248;10.336;2022-12-18T09:02:13;21.80;;;12.00;;
7027;SDS011;3555;53.248;10.336;2022-12-18T09:04:40;20.80;;;13.13;;
7027;SDS011;3555;53.248;10.336;2022-12-18T09:07:07;23.77;;;13.33;;
7027;SDS011;3555;53.248;10.336;2022-12-18T09:09:35;23.90;;;13.27;;
7027;SDS011;3555;53.248;10.336;2022-12-18T09:12:02;22.30;;;12.43;;
7027;SDS011;3555;53.248;10.336;2022-12-18T09:14:29;21.73;;;14.23;;
7027;SDS011;3555;53.248;10.336;2022-12-18T09:16:56;30.80;;;14.50;;
7027;SDS011;3555;53.248;10.336;2022-12-18T09:19:23;25.87;;;13.70;;
7027;SDS011;3555;53.248;10.336;2022-12-18T09:21:50;25.97;;;14.30;;
7027;SDS011;3555;53.248;10.336;2022-12-18T09:24:16;27.97;;;14.33;;
7027;SDS011;3555;53.248;10.336;2022-12-18T09:26:45;20.33;;;12.63;;
7027;SDS011;3555;53.248;10.336;2022-12-18T09:29:12;24.17;;;13.03;;
7027;SDS011;3555;53.248;10.336;2022-12-18T09:31:39;21.40;;;11.57;;
7027;SDS011;3555;53.248;10.336;2022-12-18T09:34:06;23.70;;;13.70;;
7027;SDS011;3555;53.248;10.336;2022-12-18T09:36:33;22.30;;;13.13;;
7027;SDS011;3555;53.248;10.336;2022-12-18T09:39:00;21.13;;;12.33;;
7027;SDS011;3555;53.248;10.336;2022-12-18T09:41:38;21.23;;;12.33;;
7027;SDS011;3555;53.248;10.336;2022-12-18T09:44:18;20.50;;;12.03;;
7027;SDS011;3555;53.248;10.336;2022-12-18T09:46:52;19.47;;;12.23;;
7027;SDS011;3555;53.248;10.336;2022-12-18T09:49:25;20.47;;;11.70;;
7027;SDS011;3555;53.248;10.336;2022-12-18T09:51:54;20.63;;;12.27;;
7027;SDS011;3555;53.248;10.336;2022-12-18T09:54:26;21.13;;;12.23;;
7027;SDS011;3555;53.248;10.336;2022-12-18T09:56:59;22.93;;;13.07;;
7027;SDS011;3555;53.248;10.336;2022-12-18T09:59:37;26.50;;;13.30;;
7027;SDS011;3555;53.248;10.336;2022-12-18T10:02:14;21.73;;;12.27;;
7027;SDS011;3555;53.248;10.336;2022-12-18T10:04:42;22.07;;;12.20;;
7027;SDS011;3555;53.248;10.336;2022-12-18T10:07:14;21.40;;;12.43;;
7027;SDS011;3555;53.248;10.336;2022-12-18T10:09:52;20.63;;;11.90;;
7027;SDS011;3555;53.248;10.336;2022-12-18T10:12:27;24.57;;;13.07;;
7027;SDS011;3555;53.248;10.336;2022-12-18T10:15:01;22.53;;;12.33;;
7027;SDS011;3555;53.248;10.336;2022-12-18T10:17:34;20.77;;;12.13;;
7027;SDS011;3555;53.248;10.336;2022-12-18T10:20:10;20.23;;;12.93;;
7027;SDS011;3555;53.248;10.336;2022-12-18T10:22:43;24.47;;;12.93;;
7027;SDS011;3555;53.248;10.336;2022-12-18T10:25:19;20.30;;;12.47;;
7027;SDS011;3555;53.248;10.336;2022-12-18T10:27:51;22.67;;;12.80;;
7027;SDS011;3555;53.248;10.336;2022-12-18T10:30:24;22.47;;;12.13;;
7027;SDS011;3555;53.248;10.336;2022-12-18T10:32:52;23.30;;;12.43;;
7027;SDS011;3555;53.248;10.336;2022-12-18T10:35:22;21.83;;;12.70;;
7027;SDS011;3555;53.248;10.336;2022-12-18T10:38:00;22.57;;;12.53;;
7027;SDS011;3555;53.248;10.336;2022-12-18T10:40:29;23.93;;;12.90;;
7027;SDS011;3555;53.248;10.336;2022-12-18T10:43:03;22.87;;;13.10;;
7027;SDS011;3555;53.248;10.336;2022-12-18T10:45:33;21.80;;;12.77;;
7027;SDS011;3555;53.248;10.336;2022-12-18T10:48:00;23.43;;;13.40;;
7027;SDS011;3555;53.248;10.336;2022-12-18T10:50:28;24.30;;;12.87;;
7027;SDS011;3555;53.248;10.336;2022-12-18T10:52:58;17.97;;;11.00;;
7027;SDS011;3555;53.248;10.336;2022-12-18T10:55:27;21.03;;;12.07;;
7027;SDS011;3555;53.248;10.336;2022-12-18T10:58:05;19.90;;;11.30;;
7027;SDS011;3555;53.248;10.336;2022-12-18T11:00:44;19.67;;;11.80;;
7027;SDS011;3555;53.248;10.336;2022-12-18T11:06:01;20.97;;;12.30;;
7027;SDS011;3555;53.248;10.336;2022-12-18T11:08:30;22.57;;;13.23;;
7027;SDS011;3555;53.248;10.336;2022-12-18T11:10:57;22.70;;;12.10;;
7027;SDS011;3555;53.248;10.336;2022-12-18T11:13:25;20.80;;;12.27;;
7027;SDS011;3555;53.248;10.336;2022-12-18T11:15:55;23.67;;;13.47;;
7027;SDS011;3555;53.248;10.336;2022-12-18T11:18:24;25.67;;;12.53;;
7027;SDS011;3555;53.248;10.336;2022-12-18T11:20:53;24.43;;;13.37;;
7027;SDS011;3555;53.248;10.336;2022-12-18T11:23:22;21.37;;;12.37;;
7027;SDS011;3555;53.248;10.336;2022-12-18T11:25:54;20.40;;;11.77;;
7027;SDS011;3555;53.248;10.336;2022-12-18T11:28:27;22.07;;;12.53;;
7027;SDS011;3555;53.248;10.336;2022-12-18T11:31:11;24.30;;;12.87;;
7027;SDS011;3555;53.248;10.336;2022-12-18T11:33:48;21.20;;;12.67;;
7027;SDS011;3555;53.248;10.336;2022-12-18T11:36:20;26.50;;;13.93;;
7027;SDS011;3555;53.248;10.336;2022-12-18T11:38:49;23.10;;;13.77;;
7027;SDS011;3555;53.248;10.336;2022-12-18T11:41:21;24.67;;;13.90;;
7027;SDS011;3555;53.248;10.336;2022-12-18T11:44:14;24.30;;;14.20;;
7027;SDS011;3555;53.248;10.336;2022-12-18T11:46:49;26.83;;;13.93;;
7027;SDS011;3555;53.248;10.336;2022-12-18T11:49:22;27.03;;;13.87;;
7027;SDS011;3555;53.248;10.336;2022-12-18T11:51:55;28.43;;;15.27;;
7027;SDS011;3555;53.248;10.336;2022-12-18T11:54:26;22.77;;;13.67;;
7027;SDS011;3555;53.248;10.336;2022-12-18T11:56:53;32.00;;;14.33;;
7027;SDS011;3555;53.248;10.336;2022-12-18T11:59:29;27.10;;;13.87;;
7027;SDS011;3555;53.248;10.336;2022-12-18T12:02:03;28.03;;;14.90;;
7027;SDS011;3555;53.248;10.336;2022-12-18T12:07:48;25.77;;;14.33;;
7027;SDS011;3555;53.248;10.336;2022-12-18T12:10:27;25.17;;;13.90;;
7027;SDS011;3555;53.248;10.336;2022-12-18T12:13:09;25.70;;;13.67;;
7027;SDS011;3555;53.248;10.336;2022-12-18T12:15:52;27.17;;;14.43;;
7027;SDS011;3555;53.248;10.336;2022-12-18T12:18:28;23.93;;;12.77;;
7027;SDS011;3555;53.248;10.336;2022-12-18T12:21:04;27.90;;;14.27;;
7027;SDS011;3555;53.248;10.336;2022-12-18T12:23:39;28.37;;;13.97;;
7027;SDS011;3555;53.248;10.336;2022-12-18T12:26:12;30.30;;;13.73;;
7027;SDS011;3555;53.248;10.336;2022-12-18T12:28:51;22.57;;;13.07;;
7027;SDS011;3555;53.248;10.336;2022-12-18T12:31:32;25.33;;;13.30;;
7027;SDS011;3555;53.248;10.336;2022-12-18T12:34:10;26.80;;;13.50;;
7027;SDS011;3555;53.248;10.336;2022-12-18T12:36:47;22.00;;;12.50;;
7027;SDS011;3555;53.248;10.336;2022-12-18T12:39:22;28.67;;;14.50;;
7027;SDS011;3555;53.248;10.336;2022-12-18T12:41:53;27.57;;;14.43;;
7027;SDS011;3555;53.248;10.336;2022-12-18T12:44:40;27.30;;;13.10;;
7027;SDS011;3555;53.248;10.336;2022-12-18T12:47:11;26.33;;;13.40;;
7027;SDS011;3555;53.248;10.336;2022-12-18T12:49:43;28.03;;;13.70;;
7027;SDS011;3555;53.248;10.336;2022-12-18T12:52:13;27.07;;;13.17;;
7027;SDS011;3555;53.248;10.336;2022-12-18T12:54:44;28.50;;;13.53;;
7027;SDS011;3555;53.248;10.336;2022-12-18T12:57:13;26.50;;;14.47;;
7027;SDS011;3555;53.248;10.336;2022-12-18T12:59:49;24.63;;;13.70;;
7027;SDS011;3555;53.248;10.336;2022-12-18T13:02:25;25.57;;;13.53;;
7027;SDS011;3555;53.248;10.336;2022-12-18T13:05:00;25.83;;;14.60;;
7027;SDS011;3555;53.248;10.336;2022-12-18T13:07:33;26.57;;;13.27;;
7027;SDS011;3555;53.248;10.336;2022-12-18T13:10:13;27.20;;;14.07;;
7027;SDS011;3555;53.248;10.336;2022-12-18T13:12:54;29.20;;;14.00;;
7027;SDS011;3555;53.248;10.336;2022-12-18T13:15:22;30.70;;;15.40;;
7027;SDS011;3555;53.248;10.336;2022-12-18T13:18:02;34.77;;;16.57;;
7027;SDS011;3555;53.248;10.336;2022-12-18T13:20:36;29.57;;;15.40;;
7027;SDS011;3555;53.248;10.336;2022-12-18T13:23:19;31.77;;;15.63;;
7027;SDS011;3555;53.248;10.336;2022-12-18T13:25:53;28.00;;;14.53;;
7027;SDS011;3555;53.248;10.336;2022-12-18T13:28:21;27.40;;;14.30;;
7027;SDS011;3555;53.248;10.336;2022-12-18T13:31:10;31.60;;;15.30;;
7027;SDS011;3555;53.248;10.336;2022-12-18T13:33:45;33.03;;;15.70;;
7027;SDS011;3555;53.248;10.336;2022-12-18T13:36:15;33.83;;;16.10;;
7027;SDS011;3555;53.248;10.336;2022-12-18T13:45:35;28.80;;;14.27;;
7027;SDS011;3555;53.248;10.336;2022-12-18T13:50:58;26.93;;;15.17;;
7027;SDS011;3555;53.248;10.336;2022-12-18T13:53:31;31.37;;;15.67;;
7027;SDS011;3555;53.248;10.336;2022-12-18T13:56:02;30.77;;;15.97;;
7027;SDS011;3555;53.248;10.336;2022-12-18T13:58:29;35.77;;;16.77;;
7027;SDS011;3555;53.248;10.336;2022-12-18T14:00:56;45.07;;;16.63;;
7027;SDS011;3555;53.248;10.336;2022-12-18T14:03:25;26.53;;;15.03;;
7027;SDS011;3555;53.248;10.336;2022-12-18T14:05:54;30.57;;;15.50;;
7027;SDS011;3555;53.248;10.336;2022-12-18T14:08:24;29.23;;;14.87;;
7027;SDS011;3555;53.248;10.336;2022-12-18T14:10:55;33.40;;;16.50;;
7027;SDS011;3555;53.248;10.336;2022-12-18T14:13:24;30.33;;;15.17;;
7027;SDS011;3555;53.248;10.336;2022-12-18T14:15:54;33.60;;;16.77;;
7027;SDS011;3555;53.248;10.336;2022-12-18T14:18:23;38.00;;;17.37;;
7027;SDS011;3555;53.248;10.336;2022-12-18T14:20:51;35.77;;;16.50;;
7027;SDS011;3555;53.248;10.336;2022-12-18T14:23:27;35.63;;;16.83;;
7027;SDS011;3555;53.248;10.336;2022-12-18T14:25:57;32.30;;;16.07;;
7027;SDS011;3555;53.248;10.336;2022-12-18T14:28:25;32.57;;;17.00;;
7027;SDS011;3555;53.248;10.336;2022-12-18T14:30:52;28.07;;;15.20;;
7027;SDS011;3555;53.248;10.336;2022-12-18T14:33:21;36.00;;;16.50;;
7027;SDS011;3555;53.248;10.336;2022-12-18T14:35:53;32.53;;;16.37;;
7027;SDS011;3555;53.248;10.336;2022-12-18T14:38:26;29.97;;;16.13;;
7027;SDS011;3555;53.248;10.336;2022-12-18T14:40:57;38.53;;;16.80;;
7027;SDS011;3555;53.248;10.336;2022-12-18T14:43:25;31.50;;;16.93;;
7027;SDS011;3555;53.248;10.336;2022-12-18T14:45:53;38.30;;;17.10;;
7027;SDS011;3555;53.248;10.336;2022-12-18T14:48:21;34.17;;;15.77;;
7027;SDS011;3555;53.248;10.336;2022-12-18T14:50:59;38.20;;;17.77;;
7027;SDS011;3555;53.248;10.336;2022-12-18T14:53:34;33.90;;;16.40;;
7027;SDS011;3555;53.248;10.336;2022-12-18T14:56:05;32.77;;;16.53;;
7027;SDS011;3555;53.248;10.336;2022-12-18T14:58:44;31.03;;;16.63;;
7027;SDS011;3555;53.248;10.336;2022-12-18T15:01:17;33.33;;;16.47;;
7027;SDS011;3555;53.248;10.336;2022-12-18T15:03:49;36.17;;;17.33;;
7027;SDS011;3555;53.248;10.336;2022-12-18T15:06:17;35.80;;;17.40;;
7027;SDS011;3555;53.248;10.336;2022-12-18T15:08:51;37.20;;;18.03;;
7027;SDS011;3555;53.248;10.336;2022-12-18T15:11:27;33.63;;;17.47;;
7027;SDS011;3555;53.248;10.336;2022-12-18T15:13:58;43.00;;;18.73;;